Time;durP1;ratioP1;P1;durP2;ratioP2;P2;SDS_P1;SDS_P2;PMS_P1;PMS_P2;Temp;Humidity;BMP_temperature;BMP_pressure;BME280_temperature;BME280_humidity;BME280_pressure;Samples;Min_cycle;Max_cycle;Signal;HPM_P1;HPM_P2
2021/09/11 00:00:09;;;;;;;14.25;5.70;;;20.00;47.80;;;;;;5072412;28;20500;-57
2021/09/11 00:02:36;;;;;;;;;;;20.00;47.80;;;;;;5054501;28;20123;-55
2021/09/11 00:05:02;;;;;;;12.90;5.60;;;20.00;47.90;;;;;;5072225;28;19994;-58
2021/09/11 00:07:29;;;;;;;20.10;6.18;;;20.00;47.80;;;;;;5071691;28;20433;-58
2021/09/11 00:09:55;;;;;;;16.65;4.90;;;20.00;47.80;;;;;;5072361;28;20063;-56
2021/09/11 00:12:21;;;;;;;13.38;5.00;;;20.00;47.90;;;;;;5071595;28;20060;-57
2021/09/11 00:14:46;;;;;;;17.80;5.40;;;19.90;47.90;;;;;;5072181;28;20111;-57
2021/09/11 00:17:13;;;;;;;19.15;5.20;;;20.00;48.00;;;;;;5071960;28;20021;-65
2021/09/11 00:19:38;;;;;;;18.83;5.40;;;19.90;48.00;;;;;;5072493;28;20032;-55
2021/09/11 00:22:04;;;;;;;11.00;4.75;;;19.90;48.20;;;;;;5072100;28;20099;-55
2021/09/11 00:24:30;;;;;;;13.10;4.80;;;19.90;48.20;;;;;;5071643;28;20162;-55
2021/09/11 00:26:55;;;;;;;13.05;4.20;;;19.90;48.10;;;;;;5029559;28;1216820;-56
2021/09/11 00:29:24;;;;;;;11.77;4.80;;;19.90;48.00;;;;;;5054838;28;20032;-55
2021/09/11 00:31:50;;;;;;;14.70;5.18;;;19.90;48.10;;;;;;5072971;28;20028;-54
2021/09/11 00:34:16;;;;;;;13.13;4.97;;;19.80;48.20;;;;;;5072255;28;20077;-56
2021/09/11 00:36:42;;;;;;;16.85;5.15;;;19.70;48.40;;;;;;5055131;28;20085;-55
2021/09/11 00:39:07;;;;;;;15.98;4.65;;;19.70;48.40;;;;;;5072649;28;20024;-54
2021/09/11 00:41:34;;;;;;;15.52;4.20;;;19.70;48.40;;;;;;5072099;28;20504;-58
2021/09/11 00:44:00;;;;;;;20.38;5.97;;;19.70;48.40;;;;;;5072604;28;20033;-56
2021/09/11 00:46:26;;;;;;;14.90;6.88;;;19.70;48.60;;;;;;5053666;28;20402;-56
2021/09/11 00:48:51;;;;;;;14.40;5.88;;;19.60;48.70;;;;;;5054286;28;20024;-57
2021/09/11 00:51:17;;;;;;;13.07;5.13;;;19.70;49.00;;;;;;5053978;28;20444;-57
2021/09/11 00:53:43;;;;;;;10.07;5.05;;;19.60;49.10;;;;;;5071484;28;20033;-55
2021/09/11 00:56:09;;;;;;;12.60;5.13;;;19.60;48.80;;;;;;5072038;28;20107;-57
2021/09/11 00:58:35;;;;;;;10.70;4.78;;;19.60;48.80;;;;;;5053754;28;20024;-54
2021/09/11 01:01:01;;;;;;;12.15;4.80;;;19.50;48.70;;;;;;5072456;28;20024;-57
2021/09/11 01:03:30;;;;;;;12.27;4.57;;;19.50;48.90;;;;;;5071338;28;20445;-57
2021/09/11 01:05:55;;;;;;;12.23;5.30;;;19.50;48.80;;;;;;5071152;28;20106;-60
2021/09/11 01:08:21;;;;;;;11.73;5.50;;;19.50;49.70;;;;;;5071618;28;20461;-59
2021/09/11 01:10:48;;;;;;;10.57;5.72;;;19.40;50.40;;;;;;5054331;28;20025;-60
2021/09/11 01:13:14;;;;;;;10.05;4.63;;;19.50;50.50;;;;;;5072288;28;20032;-60
2021/09/11 01:15:41;;;;;;;12.40;4.97;;;19.50;50.80;;;;;;5072554;28;20025;-60
2021/09/11 01:18:08;;;;;;;8.82;5.43;;;19.50;50.90;;;;;;5054572;28;20029;-60
2021/09/11 01:20:35;;;;;;;10.27;5.75;;;19.40;51.40;;;;;;5071742;28;20060;-60
2021/09/11 01:23:00;;;;;;;11.75;5.18;;;19.40;51.70;;;;;;5071522;28;20074;-60
2021/09/11 01:25:26;;;;;;;10.48;5.75;;;19.40;51.70;;;;;;5071008;28;20029;-59
2021/09/11 01:27:53;;;;;;;12.60;5.35;;;19.30;52.00;;;;;;5072336;28;20075;-60
2021/09/11 01:30:21;;;;;;;12.57;5.30;;;19.30;52.30;;;;;;5071880;28;20033;-58
2021/09/11 01:32:48;;;;;;;8.75;5.00;;;19.30;52.60;;;;;;5054604;28;20025;-58
2021/09/11 01:35:14;;;;;;;9.68;4.88;;;19.20;52.60;;;;;;5054310;28;20020;-62
2021/09/11 01:37:40;;;;;;;9.48;5.85;;;19.20;52.80;;;;;;5071722;28;20054;-58
2021/09/11 01:40:08;;;;;;;8.15;5.05;;;19.10;52.90;;;;;;5072177;28;20052;-59
2021/09/11 01:42:34;;;;;;;10.82;5.35;;;19.10;53.00;;;;;;5071415;28;20025;-58
2021/09/11 01:45:13;;;;;;;9.05;5.10;;;19.10;53.20;;;;;;5053947;28;20074;-59
2021/09/11 01:47:40;;;;;;;13.00;5.30;;;19.00;53.50;;;;;;5071837;28;20056;-59
2021/09/11 01:50:08;;;;;;;9.85;5.35;;;19.00;53.50;;;;;;5071857;28;20048;-59
2021/09/11 01:52:34;;;;;;;8.73;5.03;;;19.00;53.50;;;;;;5071819;28;20054;-59
2021/09/11 01:55:00;;;;;;;12.30;5.63;;;18.90;53.60;;;;;;5072111;28;20028;-59
2021/09/11 01:57:25;;;;;;;9.35;4.85;;;18.90;53.70;;;;;;5053515;28;20378;-59
2021/09/11 01:59:51;;;;;;;11.88;5.07;;;18.90;53.80;;;;;;5053951;28;20025;-58
2021/09/11 02:02:17;;;;;;;11.15;4.97;;;18.80;53.90;;;;;;5071471;28;20025;-59
2021/09/11 02:04:43;;;;;;;8.27;5.18;;;18.80;54.00;;;;;;5071827;28;20040;-59
2021/09/11 02:07:27;;;;;;;9.65;4.90;;;18.80;54.10;;;;;;5071544;28;20033;-59
2021/09/11 02:09:53;;;;;;;;;;;18.80;54.20;;;;;;5054184;28;20035;-59
2021/09/11 02:12:19;;;;;;;8.65;5.07;;;18.70;54.50;;;;;;5071325;28;19904;-59
2021/09/11 02:14:44;;;;;;;7.72;4.80;;;18.70;54.30;;;;;;5053821;28;20028;-59
2021/09/11 02:17:10;;;;;;;12.88;5.25;;;18.70;54.60;;;;;;5071497;28;20358;-60
2021/09/11 02:19:36;;;;;;;12.18;6.38;;;18.60;54.60;;;;;;5070916;28;20103;-59
2021/09/11 02:22:04;;;;;;;7.28;5.18;;;18.60;54.70;;;;;;5053581;28;20082;-59
2021/09/11 02:24:30;;;;;;;10.85;5.15;;;18.50;54.70;;;;;;5052755;28;20500;-59
2021/09/11 02:26:57;;;;;;;11.73;5.07;;;18.50;54.90;;;;;;5053305;28;20056;-59
2021/09/11 02:29:23;;;;;;;9.45;4.60;;;18.50;55.00;;;;;;5053047;28;20021;-59
2021/09/11 02:31:49;;;;;;;8.65;4.85;;;18.40;55.10;;;;;;5053680;28;20033;-59
2021/09/11 02:34:15;;;;;;;8.80;4.88;;;18.40;55.20;;;;;;5071469;28;20083;-59
2021/09/11 02:36:40;;;;;;;12.00;5.68;;;18.40;55.30;;;;;;5053062;28;20454;-60
2021/09/11 02:39:06;;;;;;;7.50;5.00;;;18.30;55.40;;;;;;5053479;28;20531;-59
2021/09/11 02:41:36;;;;;;;8.50;4.72;;;18.30;55.60;;;;;;5071124;28;20035;-59
2021/09/11 02:44:03;;;;;;;7.97;4.82;;;18.20;55.70;;;;;;5071306;28;20108;-59
2021/09/11 02:46:30;;;;;;;7.35;4.97;;;18.20;55.80;;;;;;5070866;28;20063;-59
2021/09/11 02:48:57;;;;;;;7.57;4.57;;;18.10;55.90;;;;;;5071235;28;20119;-58
2021/09/11 02:51:24;;;;;;;8.57;4.55;;;18.10;56.00;;;;;;5036222;28;20043;-59
2021/09/11 02:53:50;;;;;;;7.88;4.82;;;18.10;56.10;;;;;;5053253;28;20048;-61
2021/09/11 02:56:16;;;;;;;9.07;4.88;;;18.10;56.10;;;;;;5053155;28;20039;-58
2021/09/11 02:58:41;;;;;;;8.30;4.53;;;18.00;56.10;;;;;;5070715;28;20205;-59
2021/09/11 03:01:07;;;;;;;11.05;4.60;;;18.00;56.20;;;;;;5071194;28;20424;-59
2021/09/11 03:03:33;;;;;;;8.75;4.32;;;18.00;56.30;;;;;;5052675;28;20497;-59
2021/09/11 03:05:59;;;;;;;11.40;5.07;;;18.00;56.40;;;;;;5053395;28;20021;-59
2021/09/11 03:08:24;;;;;;;11.50;5.22;;;17.90;56.40;;;;;;5070725;28;20462;-59
2021/09/11 03:10:50;;;;;;;9.07;4.68;;;17.90;56.50;;;;;;5071181;28;20021;-59
2021/09/11 03:13:16;;;;;;;9.43;5.03;;;17.90;56.50;;;;;;5053150;28;20029;-59
2021/09/11 03:15:42;;;;;;;10.63;4.90;;;17.90;56.50;;;;;;5070679;28;20372;-60
2021/09/11 03:18:08;;;;;;;8.10;4.60;;;17.90;56.50;;;;;;5056162;28;20035;-59
2021/09/11 03:20:33;;;;;;;11.80;5.22;;;17.90;56.50;;;;;;5074068;28;20032;-58
2021/09/11 03:22:59;;;;;;;8.43;4.93;;;17.90;56.50;;;;;;5074352;28;20541;-59
2021/09/11 03:25:25;;;;;;;9.50;4.50;;;17.90;56.40;;;;;;5073520;28;20032;-59
2021/09/11 03:27:50;;;;;;;8.30;4.50;;;17.90;56.50;;;;;;5057003;28;20377;-61
2021/09/11 03:30:16;;;;;;;9.57;4.90;;;17.90;56.60;;;;;;5074659;28;20104;-59
2021/09/11 03:32:42;;;;;;;10.15;5.03;;;17.90;56.60;;;;;;5073919;28;20433;-60
2021/09/11 03:35:08;;;;;;;10.25;4.53;;;17.80;56.60;;;;;;5074333;28;20517;-59
2021/09/11 03:37:34;;;;;;;8.52;4.43;;;17.90;56.80;;;;;;5056188;28;20028;-61
2021/09/11 03:40:00;;;;;;;7.40;4.47;;;17.80;56.80;;;;;;5056531;28;20163;-59
2021/09/11 03:42:26;;;;;;;13.93;5.22;;;17.80;56.80;;;;;;5056069;28;20021;-59
2021/09/11 03:44:52;;;;;;;10.48;5.38;;;17.80;56.90;;;;;;5056661;28;20036;-59
2021/09/11 03:47:17;;;;;;;9.88;5.03;;;17.80;57.00;;;;;;5074854;28;20016;-60
2021/09/11 03:49:43;;;;;;;13.75;4.70;;;17.80;57.10;;;;;;5056038;28;20408;-58
2021/09/11 03:52:09;;;;;;;10.07;4.88;;;17.70;57.20;;;;;;5074257;28;20032;-59
2021/09/11 03:54:34;;;;;;;7.30;4.72;;;17.70;57.20;;;;;;5073702;28;20116;-59
2021/09/11 03:57:00;;;;;;;10.15;5.60;;;17.70;57.20;;;;;;5074160;28;20031;-59
2021/09/11 03:59:26;;;;;;;11.45;5.30;;;17.70;57.30;;;;;;5074152;28;20021;-57
2021/09/11 04:01:52;;;;;;;10.82;5.20;;;17.70;57.20;;;;;;5056415;28;20037;-59
2021/09/11 04:04:18;;;;;;;12.02;5.28;;;17.70;57.30;;;;;;5073988;28;20036;-59
2021/09/11 04:06:44;;;;;;;7.78;5.00;;;17.70;57.30;;;;;;5073490;28;20028;-58
2021/09/11 04:09:09;;;;;;;10.45;4.93;;;17.70;57.40;;;;;;5056369;28;20484;-59
2021/09/11 04:11:35;;;;;;;9.60;5.18;;;17.60;57.40;;;;;;5073327;28;20040;-58
2021/09/11 04:14:01;;;;;;;8.68;5.05;;;17.60;57.50;;;;;;5073458;28;20032;-58
2021/09/11 04:16:26;;;;;;;7.82;5.22;;;17.60;57.60;;;;;;5074482;28;20055;-59
2021/09/11 04:18:52;;;;;;;8.18;4.88;;;17.50;57.60;;;;;;5073594;28;20113;-59
2021/09/11 04:21:18;;;;;;;8.80;4.90;;;17.50;57.60;;;;;;5055787;28;20032;-60
2021/09/11 04:23:43;;;;;;;16.83;5.43;;;17.50;57.70;;;;;;5073220;28;20036;-59
2021/09/11 04:26:09;;;;;;;11.07;5.38;;;17.50;57.80;;;;;;5073612;28;20063;-59
2021/09/11 04:28:35;;;;;;;11.82;4.65;;;17.50;57.80;;;;;;5071683;28;20029;-59
2021/09/11 04:31:01;;;;;;;11.10;5.03;;;17.50;58.00;;;;;;5039091;28;20450;-59
2021/09/11 04:33:26;;;;;;;9.23;5.00;;;17.50;58.00;;;;;;5055687;28;20028;-59
2021/09/11 04:35:52;;;;;;;9.13;5.55;;;17.40;58.10;;;;;;5073039;28;20115;-60
2021/09/11 04:38:18;;;;;;;17.48;5.65;;;17.40;58.20;;;;;;5073034;28;20050;-59
2021/09/11 04:40:47;;;;;;;12.70;4.88;;;17.40;58.30;;;;;;5072551;28;20462;-59
2021/09/11 04:43:13;;;;;;;9.15;4.90;;;17.40;58.40;;;;;;5073352;28;20037;-59
2021/09/11 04:45:43;;;;;;;11.57;5.60;;;17.40;58.40;;;;;;5055231;28;20394;-59
2021/09/11 04:48:13;;;;;;;8.52;5.30;;;17.40;58.50;;;;;;5055440;28;20032;-60
2021/09/11 04:50:39;;;;;;;11.27;5.03;;;17.40;58.60;;;;;;5072597;28;20039;-59
2021/09/11 04:53:06;;;;;;;14.40;5.70;;;17.40;58.50;;;;;;5073313;28;20491;-59
2021/09/11 04:55:32;;;;;;;14.25;6.07;;;17.40;58.50;;;;;;5054126;28;20028;-58
2021/09/11 04:57:58;;;;;;;9.68;5.57;;;17.40;58.40;;;;;;5071947;28;20104;-58
2021/09/11 05:00:24;;;;;;;11.05;5.03;;;17.40;58.40;;;;;;5072480;28;20494;-59
2021/09/11 05:02:50;;;;;;;14.40;5.30;;;17.40;58.40;;;;;;5069898;28;20036;-59
2021/09/11 05:05:16;;;;;;;8.25;5.47;;;17.40;58.30;;;;;;5071823;28;20066;-59
2021/09/11 05:07:42;;;;;;;11.18;5.20;;;17.50;58.40;;;;;;5071417;28;20036;-59
2021/09/11 05:10:08;;;;;;;11.35;5.65;;;17.50;58.30;;;;;;5036923;28;20029;-59
2021/09/11 05:12:34;;;;;;;9.00;4.97;;;17.50;58.30;;;;;;5070716;28;20052;-58
2021/09/11 05:15:00;;;;;;;7.95;5.40;;;17.50;58.20;;;;;;5070806;28;20032;-59
2021/09/11 05:17:26;;;;;;;11.10;5.35;;;17.50;58.20;;;;;;5037028;28;20082;-59
2021/09/11 05:19:52;;;;;;;13.05;5.28;;;17.60;58.20;;;;;;5053864;28;20119;-59
2021/09/11 05:22:18;;;;;;;10.63;5.47;;;17.60;58.10;;;;;;5054504;28;20024;-59
2021/09/11 05:24:44;;;;;;;11.40;5.65;;;17.60;58.10;;;;;;5053115;28;20037;-60
2021/09/11 05:27:12;;;;;;;10.82;5.57;;;17.70;57.90;;;;;;5038450;28;20394;-60
2021/09/11 05:29:37;;;;;;;10.82;5.40;;;17.70;57.70;;;;;;5051843;28;20021;-60
2021/09/11 05:32:03;;;;;;;11.75;5.15;;;17.80;57.60;;;;;;5034541;28;20036;-60
2021/09/11 05:34:29;;;;;;;11.68;5.43;;;17.80;57.50;;;;;;5034496;28;20033;-60
2021/09/11 05:36:55;;;;;;;11.88;4.97;;;17.90;57.40;;;;;;5051286;28;20110;-60
2021/09/11 05:39:20;;;;;;;9.27;5.43;;;18.00;57.30;;;;;;5034036;28;20057;-60
2021/09/11 05:41:46;;;;;;;9.40;5.50;;;18.00;57.80;;;;;;5051057;28;20436;-59
2021/09/11 05:44:12;;;;;;;11.15;5.70;;;18.00;57.10;;;;;;5051495;28;20037;-60
2021/09/11 05:46:37;;;;;;;10.75;5.57;;;18.10;57.10;;;;;;5051267;28;20409;-60
2021/09/11 05:49:03;;;;;;;10.77;5.13;;;18.10;57.00;;;;;;5034390;28;20036;-59
2021/09/11 05:51:29;;;;;;;10.35;5.18;;;18.10;57.00;;;;;;5051834;28;20151;-60
2021/09/11 05:53:54;;;;;;;8.82;5.57;;;18.20;56.90;;;;;;5032262;28;20049;-62
2021/09/11 05:56:20;;;;;;;11.93;5.65;;;18.20;56.70;;;;;;5033741;28;20112;-59
2021/09/11 05:58:46;;;;;;;11.18;5.53;;;18.30;56.70;;;;;;5051029;28;20028;-60
2021/09/11 06:01:11;;;;;;;18.05;5.97;;;18.40;56.50;;;;;;5051372;28;20021;-59
2021/09/11 06:03:37;;;;;;;11.73;5.63;;;18.40;56.40;;;;;;5033567;28;20025;-58
2021/09/11 06:06:03;;;;;;;12.90;6.05;;;18.50;56.30;;;;;;5052289;28;20017;-59
2021/09/11 06:08:29;;;;;;;11.85;5.72;;;18.50;56.10;;;;;;5052127;28;20442;-60
2021/09/11 06:10:55;;;;;;;12.48;5.72;;;18.60;56.30;;;;;;5033439;28;20240;-58
2021/09/11 06:13:20;;;;;;;12.30;6.20;;;18.70;55.80;;;;;;5051699;28;20075;-60
2021/09/11 06:15:46;;;;;;;11.77;5.97;;;18.80;55.70;;;;;;5032980;28;20057;-58
2021/09/11 06:18:12;;;;;;;8.65;5.78;;;18.80;55.40;;;;;;5052052;28;20045;-58
2021/09/11 06:20:38;;;;;;;12.88;6.00;;;18.90;55.30;;;;;;5051383;28;20060;-57
2021/09/11 06:23:03;;;;;;;16.23;5.85;;;19.00;55.10;;;;;;5051565;28;20029;-58
2021/09/11 06:25:29;;;;;;;12.57;6.10;;;19.10;54.90;;;;;;5035981;28;20036;-58
2021/09/11 06:27:55;;;;;;;14.07;6.78;;;19.10;54.90;;;;;;5071540;28;20048;-59
2021/09/11 06:30:23;;;;;;;14.48;6.43;;;19.10;54.70;;;;;;5071819;28;20183;-62
2021/09/11 06:32:49;;;;;;;11.82;5.78;;;19.10;54.60;;;;;;5071182;28;20054;-58
2021/09/11 06:35:14;;;;;;;14.02;5.75;;;19.10;54.50;;;;;;5071808;28;20103;-59
2021/09/11 06:37:40;;;;;;;13.55;6.70;;;19.20;54.40;;;;;;5071151;28;20035;-59
2021/09/11 06:40:06;;;;;;;14.75;6.25;;;19.30;54.40;;;;;;5071748;28;20041;-59
2021/09/11 06:42:32;;;;;;;12.73;6.35;;;19.30;54.10;;;;;;5071821;28;20093;-59
2021/09/11 06:44:58;;;;;;;14.15;5.45;;;19.40;54.00;;;;;;5052951;28;20128;-59
2021/09/11 06:47:24;;;;;;;12.60;6.40;;;19.60;53.80;;;;;;5053652;28;20017;-57
2021/09/11 06:49:49;;;;;;;14.70;6.80;;;19.60;53.40;;;;;;5071131;28;20099;-58
2021/09/11 06:52:15;;;;;;;19.83;6.60;;;19.70;53.20;;;;;;5055322;28;20040;-58
2021/09/11 06:54:41;;;;;;;9.80;5.53;;;19.80;52.90;;;;;;5074858;28;20171;-58
2021/09/11 06:57:07;;;;;;;9.93;6.28;;;19.90;52.70;;;;;;5075563;28;20394;-58
2021/09/11 06:59:32;;;;;;;18.25;6.80;;;20.10;52.50;;;;;;5057543;28;20450;-57
2021/09/11 07:04:42;;;;;;;10.65;5.38;;;20.20;52.20;;;;;;5074453;28;20067;-58
2021/09/11 07:07:08;;;;;;;14.05;6.28;;;20.30;52.10;;;;;;5057297;28;20048;-59
2021/09/11 07:09:34;;;;;;;13.25;6.15;;;20.40;51.70;;;;;;5074769;28;20035;-59
2021/09/11 07:12:00;;;;;;;13.85;6.38;;;20.50;51.50;;;;;;5056346;28;20215;-57
2021/09/11 07:14:26;;;;;;;15.13;6.55;;;20.60;51.40;;;;;;5056923;28;20021;-58
2021/09/11 07:16:52;;;;;;;15.93;7.68;;;20.90;51.50;;;;;;5074408;28;20016;-59
2021/09/11 07:19:17;;;;;;;15.30;7.80;;;23.80;49.80;;;;;;5074673;28;20050;-58
2021/09/11 07:21:43;;;;;;;24.90;7.55;;;27.80;43.70;;;;;;5074357;28;20433;-59
2021/09/11 07:24:09;;;;;;;12.70;7.20;;;31.10;38.00;;;;;;5074480;28;20453;-57
2021/09/11 07:26:34;;;;;;;19.73;7.10;;;33.70;34.40;;;;;;5056713;28;20036;-58
2021/09/11 07:29:00;;;;;;;15.63;6.72;;;35.90;31.40;;;;;;5074329;28;20491;-59
2021/09/11 07:31:26;;;;;;;14.68;7.13;;;37.80;29.50;;;;;;5074780;28;20031;-59
2021/09/11 07:33:51;;;;;;;15.23;6.88;;;39.50;27.90;;;;;;5073972;28;20410;-59
2021/09/11 07:36:17;;;;;;;14.38;7.05;;;41.10;26.70;;;;;;5056612;28;20021;-60
2021/09/11 07:38:43;;;;;;;14.20;7.80;;;42.60;25.90;;;;;;5056008;28;20041;-58
2021/09/11 07:41:09;;;;;;;34.10;8.60;;;43.80;25.10;;;;;;5056565;28;20050;-58
2021/09/11 07:43:35;;;;;;;19.25;8.15;;;44.40;24.20;;;;;;5056372;28;20032;-58
2021/09/11 07:46:01;;;;;;;18.17;7.70;;;45.10;24.10;;;;;;5055638;28;20438;-59
2021/09/11 07:48:26;;;;;;;13.32;8.00;;;46.00;23.70;;;;;;5074166;28;20091;-58
2021/09/11 07:50:53;;;;;;;23.05;9.00;;;46.80;23.20;;;;;;5055749;28;20020;-59
2021/09/11 07:53:18;;;;;;;35.92;9.77;;;47.00;22.70;;;;;;5074032;28;20032;-58
2021/09/11 07:55:44;;;;;;;21.90;8.80;;;46.70;22.60;;;;;;5055665;28;20016;-59
2021/09/11 07:58:10;;;;;;;16.40;7.72;;;46.60;22.40;;;;;;5055989;28;20028;-58
2021/09/11 08:00:36;;;;;;;30.42;8.70;;;46.50;22.50;;;;;;5056145;28;20039;-58
2021/09/11 08:03:02;;;;;;;20.73;7.00;;;46.80;22.50;;;;;;5055077;28;20079;-58
2021/09/11 08:05:28;;;;;;;16.15;7.20;;;47.10;22.30;;;;;;5055814;28;20442;-58
2021/09/11 08:07:54;;;;;;;35.35;8.85;;;47.50;22.10;;;;;;5072982;28;20025;-58
2021/09/11 08:10:21;;;;;;;25.00;7.13;;;48.00;22.10;;;;;;5073553;28;20100;-58
2021/09/11 08:12:47;;;;;;;21.45;7.00;;;48.50;22.00;;;;;;5055098;28;20471;-59
2021/09/11 08:15:18;;;;;;;55.65;9.80;;;49.50;21.90;;;;;;5055868;28;20373;-59
2021/09/11 08:17:46;;;;;;;34.97;8.07;;;50.00;21.70;;;;;;5039899;28;20381;-62
2021/09/11 08:20:13;;;;;;;44.08;8.80;;;49.00;21.30;;;;;;5055397;28;20430;-60
2021/09/11 08:22:40;;;;;;;43.58;9.30;;;48.50;21.60;;;;;;5073786;28;20463;-59
2021/09/11 08:25:07;;;;;;;38.90;8.60;;;48.70;21.70;;;;;;5072893;28;20486;-61
2021/09/11 08:27:33;;;;;;;22.80;7.25;;;49.00;21.60;;;;;;5036360;28;20045;-64
2021/09/11 08:29:59;;;;;;;17.33;6.80;;;49.00;21.50;;;;;;5035377;28;20108;-62
2021/09/11 08:32:26;;;;;;;12.48;6.85;;;48.60;21.30;;;;;;5035551;28;20045;-61
2021/09/11 08:34:52;;;;;;;18.92;8.10;;;48.00;21.50;;;;;;5034827;28;20036;-61
2021/09/11 08:37:19;;;;;;;12.57;5.93;;;46.30;21.70;;;;;;5035824;28;20505;-62
2021/09/11 08:39:45;;;;;;;13.45;5.60;;;44.10;22.60;;;;;;5053401;28;20017;-61
2021/09/11 08:42:11;;;;;;;17.00;6.03;;;42.10;23.70;;;;;;5034489;28;20016;-61
2021/09/11 08:44:38;;;;;;;17.52;6.47;;;40.00;25.00;;;;;;5052954;28;20027;-60
2021/09/11 08:47:07;;;;;;;24.88;7.90;;;38.30;26.00;;;;;;5052312;28;20052;-61
2021/09/11 08:49:34;;;;;;;25.05;6.68;;;37.00;26.90;;;;;;5034456;28;20070;-61
2021/09/11 08:52:03;;;;;;;66.97;11.45;;;36.00;27.70;;;;;;5052328;28;20147;-61
2021/09/11 08:54:29;;;;;;;29.63;7.15;;;34.80;28.90;;;;;;5052561;28;20116;-59
2021/09/11 08:56:55;;;;;;;22.52;7.03;;;33.70;29.80;;;;;;5051673;28;20048;-61
2021/09/11 08:59:21;;;;;;;24.83;7.80;;;32.50;31.10;;;;;;5034144;28;20021;-60
2021/09/11 09:02:06;;;;;;;15.07;7.15;;;31.80;32.20;;;;;;5052083;28;20469;-61
2021/09/11 09:04:55;;;;;;;15.98;7.15;;;31.10;33.70;;;;;;5034841;28;20042;-60
2021/09/11 09:07:43;;;;;;;21.33;6.60;;;30.60;34.50;;;;;;5052086;28;20074;-59
2021/09/11 09:10:12;;;;;;;15.00;7.00;;;30.20;35.70;;;;;;5051548;28;20024;-61
2021/09/11 09:12:47;;;;;;;10.68;6.15;;;29.90;35.80;;;;;;5034099;28;20044;-61
2021/09/11 09:15:16;;;;;;;9.48;6.00;;;29.70;36.30;;;;;;5033489;28;20493;-60
2021/09/11 09:17:54;;;;;;;21.25;6.65;;;29.60;38.20;;;;;;5051982;28;20113;-63
2021/09/11 09:20:28;;;;;;;13.85;6.45;;;29.30;40.00;;;;;;5034491;28;20029;-60
2021/09/11 09:22:59;;;;;;;12.25;6.78;;;29.00;40.50;;;;;;5051796;28;20092;-61
2021/09/11 09:25:33;;;;;;;10.10;6.45;;;28.80;41.00;;;;;;5034917;28;20024;-60
2021/09/11 09:28:04;;;;;;;11.35;7.30;;;28.60;41.80;;;;;;5053436;28;20024;-60
2021/09/11 09:30:36;;;;;;;9.02;6.70;;;28.50;42.10;;;;;;5071541;28;20027;-60
2021/09/11 09:33:02;;;;;;;7.35;6.28;;;28.30;42.60;;;;;;5070980;28;20021;-60
2021/09/11 09:35:28;;;;;;;9.05;6.60;;;28.10;43.00;;;;;;5071861;28;20028;-61
2021/09/11 09:38:12;;;;;;;10.05;7.07;;;28.00;43.50;;;;;;5071288;28;20017;-60
2021/09/11 09:40:47;;;;;;;11.85;7.43;;;27.90;43.50;;;;;;5053801;28;20048;-60
2021/09/11 09:43:42;;;;;;;11.32;7.05;;;27.80;43.60;;;;;;5070906;28;20074;-60
2021/09/11 09:46:13;;;;;;;8.43;6.68;;;27.80;44.20;;;;;;5071010;28;20024;-60
2021/09/11 09:48:40;;;;;;;10.35;7.18;;;27.80;43.90;;;;;;5051457;28;20043;-60
2021/09/11 09:51:18;;;;;;;7.70;7.00;;;27.90;44.00;;;;;;5070836;28;20032;-60
2021/09/11 09:53:46;;;;;;;8.65;7.07;;;28.00;44.20;;;;;;5053584;28;20469;-61
2021/09/11 09:56:13;;;;;;;10.07;6.85;;;28.00;44.20;;;;;;5052397;28;20537;-60
2021/09/11 09:58:39;;;;;;;8.38;7.45;;;28.00;44.10;;;;;;5052881;28;20078;-60
2021/09/11 10:01:05;;;;;;;9.73;7.03;;;28.00;44.20;;;;;;5052241;28;20031;-60
2021/09/11 10:03:32;;;;;;;9.32;6.88;;;27.90;44.30;;;;;;5070900;28;20033;-60
2021/09/11 10:06:05;;;;;;;15.65;10.27;;;27.80;44.30;;;;;;5036078;28;20036;-60
2021/09/11 10:08:35;;;;;;;10.45;7.00;;;27.80;44.30;;;;;;5070872;28;20024;-60
2021/09/11 10:11:10;;;;;;;8.55;6.55;;;27.80;44.10;;;;;;5052559;28;20028;-60
2021/09/11 10:13:37;;;;;;;9.65;6.72;;;27.80;44.00;;;;;;5053557;28;20033;-61
2021/09/11 10:16:09;;;;;;;13.02;7.50;;;27.70;44.20;;;;;;5070564;28;20020;-61
2021/09/11 10:18:35;;;;;;;8.55;6.15;;;27.70;44.30;;;;;;5052349;28;20127;-61
2021/09/11 10:21:43;;;;;;;10.38;7.32;;;27.70;43.80;;;;;;5051746;28;20479;-59
2021/09/11 10:24:17;;;;;;;8.82;7.40;;;27.80;43.90;;;;;;5070229;28;20090;-60
2021/09/11 10:26:50;;;;;;;13.40;11.18;;;27.80;44.00;;;;;;5073396;28;20059;-60
2021/09/11 10:29:35;;;;;;;16.25;8.40;;;27.90;44.20;;;;;;5056287;28;20115;-61
2021/09/11 10:32:11;;;;;;;17.95;8.65;;;27.90;44.30;;;;;;5074463;28;20035;-60
2021/09/11 10:35:24;;;;;;;9.25;6.70;;;28.10;44.20;;;;;;5075183;28;20032;-61
2021/09/11 10:38:10;;;;;;;17.70;7.80;;;28.10;44.00;;;;;;4993368;28;20065;-61
2021/09/11 10:40:38;;;;;;;8.00;6.55;;;28.20;43.80;;;;;;5069140;28;20036;-61
2021/09/11 10:43:32;;;;;;;9.98;7.05;;;28.20;43.20;;;;;;5074525;28;20028;-61
2021/09/11 10:46:02;;;;;;;20.23;8.25;;;28.10;43.60;;;;;;5056419;28;20457;-43
2021/09/11 10:48:48;;;;;;;23.73;7.93;;;28.10;43.40;;;;;;5075092;28;20024;-42
2021/09/11 10:51:28;;;;;;;9.73;7.50;;;28.00;43.70;;;;;;5074238;28;20021;-45
2021/09/11 10:53:57;;;;;;;20.95;8.25;;;28.10;43.40;;;;;;5056210;28;20032;-42
2021/09/11 10:56:24;;;;;;;12.13;8.45;;;28.20;43.40;;;;;;5056401;28;20078;-48
2021/09/11 11:02:01;;;;;;;13.48;8.40;;;28.30;44.00;;;;;;5036242;28;20090;-43
2021/09/11 11:04:33;;;;;;;9.45;7.20;;;28.40;44.10;;;;;;5056411;28;20239;-45
2021/09/11 11:07:11;;;;;;;11.02;7.13;;;28.50;44.00;;;;;;5055556;28;20124;-45
2021/09/11 11:09:43;;;;;;;13.10;6.57;;;28.60;43.90;;;;;;5074416;28;20031;-44
2021/09/11 11:12:10;;;;;;;22.23;10.55;;;28.70;44.10;;;;;;5073237;28;20028;-44
2021/09/11 11:14:46;;;;;;;24.65;7.70;;;28.80;43.40;;;;;;5056036;28;20043;-45
2021/09/11 11:17:13;;;;;;;28.17;16.88;;;28.90;43.10;;;;;;5055458;28;20085;-45
2021/09/11 11:19:43;;;;;;;24.17;14.93;;;28.80;42.80;;;;;;5056233;28;20099;-47
2021/09/11 11:22:12;;;;;;;13.45;9.05;;;28.70;43.00;;;;;;5055250;28;20021;-48
2021/09/11 11:24:40;;;;;;;10.55;7.80;;;28.70;43.20;;;;;;5072680;28;20116;-50
2021/09/11 11:27:12;;;;;;;8.63;5.97;;;28.70;43.10;;;;;;5038430;28;20076;-49
2021/09/11 11:29:38;;;;;;;10.38;7.47;;;28.70;42.90;;;;;;5053702;28;20025;-44
2021/09/11 11:32:07;;;;;;;10.18;7.15;;;28.80;42.70;;;;;;5051757;28;20017;-44
2021/09/11 11:34:33;;;;;;;8.10;6.05;;;28.80;42.70;;;;;;5035180;28;20106;-43
2021/09/11 11:37:01;;;;;;;13.05;6.93;;;28.90;42.30;;;;;;5034337;28;20140;-53
2021/09/11 11:39:35;;;;;;;10.00;7.05;;;29.00;42.30;;;;;;5034475;28;20025;-47
2021/09/11 11:42:16;;;;;;;12.90;8.68;;;29.00;42.30;;;;;;5051685;28;20389;-47
2021/09/11 11:45:02;;;;;;;16.42;10.35;;;29.10;42.20;;;;;;5052406;28;20151;-43
2021/09/11 11:47:34;;;;;;;14.90;9.75;;;29.20;42.20;;;;;;5030994;28;20017;-46
2021/09/11 11:50:00;;;;;;;10.55;6.93;;;29.40;41.90;;;;;;5035302;28;20106;-43
2021/09/11 11:52:27;;;;;;;12.77;7.35;;;29.50;41.30;;;;;;5035651;28;20024;-46
2021/09/11 11:54:53;;;;;;;8.07;6.28;;;29.60;41.00;;;;;;5051443;28;20543;-45
2021/09/11 11:57:23;;;;;;;8.85;6.43;;;29.60;40.90;;;;;;5033524;28;20067;-43
2021/09/11 12:00:03;;;;;;;10.80;6.13;;;29.60;40.90;;;;;;5052354;28;20076;-43
2021/09/11 12:02:31;;;;;;;13.80;9.50;;;29.50;41.20;;;;;;5034276;28;20060;-44
2021/09/11 12:05:16;;;;;;;13.55;8.65;;;29.50;40.40;;;;;;5034045;28;20455;-47
2021/09/11 12:07:55;;;;;;;14.15;7.35;;;29.50;40.10;;;;;;5050524;28;20095;-45
2021/09/11 12:10:24;;;;;;;12.73;8.63;;;29.40;40.00;;;;;;5032584;28;20083;-48
2021/09/11 12:12:52;;;;;;;12.43;8.25;;;29.30;40.00;;;;;;5033707;28;20029;-42
2021/09/11 12:15:24;;;;;;;10.45;5.80;;;29.40;39.90;;;;;;5033273;28;20619;-43
2021/09/11 12:17:58;;;;;;;7.70;6.03;;;29.40;39.40;;;;;;5051663;28;20029;-42
2021/09/11 12:20:26;;;;;;;15.07;8.68;;;29.40;39.10;;;;;;5024162;28;20454;-46
2021/09/11 12:23:05;;;;;;;6.72;5.55;;;29.50;39.30;;;;;;5033328;28;20029;-49
2021/09/11 12:25:54;;;;;;;8.40;5.55;;;29.60;38.00;;;;;;5053246;28;20067;-41
2021/09/11 12:28:47;;;;;;;7.57;5.93;;;29.60;38.60;;;;;;5052905;28;20071;-47
2021/09/11 12:31:19;;;;;;;7.78;5.20;;;29.70;38.80;;;;;;5052802;28;20028;-42
2021/09/11 12:34:03;;;;;;;6.68;5.32;;;29.60;38.30;;;;;;5052355;28;20032;-44
2021/09/11 12:36:42;;;;;;;8.93;6.75;;;29.60;38.10;;;;;;5071105;28;20020;-46
2021/09/11 12:39:23;;;;;;;8.95;5.95;;;29.70;38.60;;;;;;5070445;28;20111;-43
2021/09/11 12:41:52;;;;;;;15.57;9.48;;;29.50;39.00;;;;;;5070796;28;20048;-47
2021/09/11 12:44:20;;;;;;;8.38;5.47;;;29.50;39.20;;;;;;5052137;28;20059;-44
2021/09/11 12:46:48;;;;;;;8.57;5.85;;;29.50;38.90;;;;;;5052069;28;20104;-48
2021/09/11 12:49:15;;;;;;;9.27;5.75;;;29.60;39.00;;;;;;5050592;28;20029;-47
2021/09/11 12:51:43;;;;;;;8.27;5.47;;;29.70;38.80;;;;;;5070287;28;20107;-48